Time;durP1;ratioP1;P1;durP2;ratioP2;P2;SDS_P1;SDS_P2;PMS_P1;PMS_P2;Temp;Humidity;BMP_temperature;BMP_pressure;BME280_temperature;BME280_humidity;BME280_pressure;Samples;Min_cycle;Max_cycle;Signal;HPM_P1;HPM_P2
2023/04/01 00:01:42;;;;;;;7.80;3.30;;;;;;;;;;110167;1277;22160;-80
2023/04/01 00:04:09;;;;;;;7.50;3.20;;;;;;;;;;110383;1277;22997;-80
2023/04/01 00:06:36;;;;;;;6.90;3.00;;;;;;;;;;110114;1263;22221;-80
2023/04/01 00:09:05;;;;;;;7.40;3.20;;;;;;;;;;110258;1279;22152;-81
2023/04/01 00:11:41;;;;;;;9.90;3.30;;;;;;;;;;110158;1278;22159;-81
2023/04/01 00:14:13;;;;;;;8.50;3.50;;;;;;;;;;110272;1279;22158;-81
2023/04/01 00:16:43;;;;;;;6.50;3.30;;;;;;;;;;110146;1277;22118;-81
2023/04/01 00:19:10;;;;;;;7.80;3.50;;;;;;;;;;110376;1273;22209;-81
2023/04/01 00:21:44;;;;;;;9.10;3.50;;;;;;;;;;110678;1272;22101;-80
2023/04/01 00:24:11;;;;;;;9.10;3.60;;;;;;;;;;110684;1273;22192;-80
2023/04/01 00:26:38;;;;;;;8.10;3.60;;;;;;;;;;110789;1257;22854;-81
2023/04/01 00:29:12;;;;;;;8.30;3.20;;;;;;;;;;110675;1269;22201;-81
2023/04/01 00:31:39;;;;;;;7.80;2.90;;;;;;;;;;110875;1272;22835;-80
2023/04/01 00:34:06;;;;;;;6.60;2.90;;;;;;;;;;110673;1272;22122;-81
2023/04/01 00:36:33;;;;;;;7.70;3.30;;;;;;;;;;110736;1253;22826;-80
2023/04/01 00:39:13;;;;;;;7.00;2.90;;;;;;;;;;110720;1271;22128;-81
2023/04/01 00:41:42;;;;;;;7.60;3.30;;;;;;;;;;110705;1272;22088;-81
2023/04/01 00:44:17;;;;;;;10.80;4.20;;;;;;;;;;110683;1272;22127;-77
2023/04/01 00:46:44;;;;;;;8.20;3.40;;;;;;;;;;110799;1253;22115;-77
2023/04/01 00:49:11;;;;;;;6.80;3.40;;;;;;;;;;110687;1272;22283;-78
2023/04/01 00:51:38;;;;;;;8.50;3.00;;;;;;;;;;110869;1272;22703;-78
2023/04/01 00:54:09;;;;;;;7.20;2.60;;;;;;;;;;110701;1272;22183;-78
2023/04/01 00:57:15;;;;;;;7.30;2.70;;;;;;;;;;111086;1251;22263;-78
2023/04/01 00:59:43;;;;;;;6.40;2.60;;;;;;;;;;110767;1272;22410;-79
2023/04/01 01:02:12;;;;;;;6.70;2.50;;;;;;;;;;110667;1272;22086;-78
2023/04/01 01:04:39;;;;;;;6.10;2.60;;;;;;;;;;110685;1272;22794;-78
2023/04/01 01:07:12;;;;;;;6.80;2.80;;;;;;;;;;111096;1251;22319;-78
2023/04/01 01:09:55;;;;;;;7.00;2.90;;;;;;;;;;110684;1272;22347;-78
2023/04/01 01:12:30;;;;;;;6.30;2.70;;;;;;;;;;110696;1272;22103;-77
2023/04/01 01:15:16;;;;;;;5.20;2.20;;;;;;;;;;110660;1272;22304;-78
2023/04/01 01:17:43;;;;;;;5.20;1.90;;;;;;;;;;111214;1251;22428;-77
2023/04/01 01:20:22;;;;;;;6.20;1.70;;;;;;;;;;111033;1272;22185;-78
2023/04/01 01:22:54;;;;;;;5.50;1.70;;;;;;;;;;110629;1272;22091;-77
2023/04/01 01:25:41;;;;;;;5.90;1.90;;;;;;;;;;111003;1272;22077;-78
2023/04/01 01:28:31;;;;;;;7.30;2.80;;;;;;;;;;110687;1251;22119;-78
2023/04/01 01:31:11;;;;;;;6.10;2.80;;;;;;;;;;110648;1273;22188;-78
2023/04/01 01:33:50;;;;;;;8.30;2.60;;;;;;;;;;110684;1273;22150;-77
2023/04/01 01:36:18;;;;;;;5.90;1.90;;;;;;;;;;110644;1273;22337;-77
2023/04/01 01:38:45;;;;;;;5.50;2.00;;;;;;;;;;111319;1253;23019;-77
2023/04/01 01:41:14;;;;;;;5.80;1.70;;;;;;;;;;110737;1272;22368;-78
2023/04/01 01:43:43;;;;;;;5.10;1.60;;;;;;;;;;110735;1272;22206;-77
2023/04/01 01:46:13;;;;;;;4.60;1.50;;;;;;;;;;110750;1272;22070;-77
2023/04/01 01:48:41;;;;;;;6.40;1.80;;;;;;;;;;111053;1253;22157;-77
2023/04/01 01:51:08;;;;;;;4.00;1.60;;;;;;;;;;110623;1273;22164;-77
2023/04/01 01:53:35;;;;;;;4.90;1.40;;;;;;;;;;110651;1273;22329;-78
2023/04/01 01:56:02;;;;;;;4.40;1.70;;;;;;;;;;110793;1273;22656;-78
2023/04/01 01:58:40;;;;;;;5.60;1.80;;;;;;;;;;110920;1254;22283;-78
2023/04/01 02:01:09;;;;;;;5.60;2.00;;;;;;;;;;110725;1272;22179;-78
2023/04/01 02:03:37;;;;;;;5.20;1.80;;;;;;;;;;110676;1272;22256;-78
2023/04/01 02:06:06;;;;;;;5.50;1.70;;;;;;;;;;110664;1272;22118;-77
2023/04/01 02:08:37;;;;;;;4.20;1.50;;;;;;;;;;110641;1253;22213;-77
2023/04/01 02:11:08;;;;;;;4.90;1.80;;;;;;;;;;110646;1273;22761;-77
2023/04/01 02:13:44;;;;;;;4.70;1.90;;;;;;;;;;110689;1273;22286;-77
2023/04/01 02:16:18;;;;;;;5.40;1.60;;;;;;;;;;110654;1273;22170;-77
2023/04/01 02:18:45;;;;;;;5.80;1.80;;;;;;;;;;110888;1256;22137;-77
2023/04/01 02:21:13;;;;;;;3.60;1.20;;;;;;;;;;110983;1272;22118;-77
2023/04/01 02:23:40;;;;;;;4.60;1.50;;;;;;;;;;110665;1272;22256;-77
2023/04/01 02:26:08;;;;;;;5.70;1.50;;;;;;;;;;110649;1272;22200;-77
2023/04/01 02:28:36;;;;;;;4.20;1.60;;;;;;;;;;110781;1253;22976;-77
2023/04/01 02:31:03;;;;;;;4.30;1.50;;;;;;;;;;110514;1273;22227;-78
2023/04/01 02:33:34;;;;;;;4.50;1.50;;;;;;;;;;110503;1273;22169;-78
2023/04/01 02:36:00;;;;;;;5.50;1.50;;;;;;;;;;110655;1273;22847;-78
2023/04/01 02:38:27;;;;;;;4.90;1.40;;;;;;;;;;110685;1249;22842;-78
2023/04/01 02:40:59;;;;;;;4.40;1.40;;;;;;;;;;110730;1272;22752;-78
2023/04/01 02:43:26;;;;;;;4.00;1.10;;;;;;;;;;110929;1272;22122;-78
2023/04/01 02:45:53;;;;;;;5.60;1.30;;;;;;;;;;110597;1272;22134;-79
2023/04/01 02:48:20;;;;;;;5.00;1.30;;;;;;;;;;110534;1272;22382;-79
2023/04/01 02:50:50;;;;;;;3.10;1.10;;;;;;;;;;110542;1256;22887;-78
2023/04/01 03:00:40;;;;;;;4.70;1.40;;;;;;;;;;110323;1259;22911;-78
2023/04/01 03:03:08;;;;;;;3.30;1.00;;;;;;;;;;110084;1281;22213;-78
2023/04/01 03:05:34;;;;;;;5.00;1.30;;;;;;;;;;110107;1281;22126;-78
2023/04/01 03:08:02;;;;;;;3.00;1.00;;;;;;;;;;110028;1278;22178;-78
2023/04/01 03:10:29;;;;;;;3.50;1.10;;;;;;;;;;110205;1262;22129;-77
2023/04/01 03:12:56;;;;;;;3.40;0.90;;;;;;;;;;109954;1282;22285;-79
2023/04/01 03:15:44;;;;;;;4.20;1.10;;;;;;;;;;110011;1282;22130;-78
2023/04/01 03:18:10;;;;;;;4.10;1.10;;;;;;;;;;110011;1282;22236;-78
2023/04/01 03:20:36;;;;;;;4.70;1.10;;;;;;;;;;110125;1259;22098;-78
2023/04/01 03:23:03;;;;;;;3.30;1.00;;;;;;;;;;109895;1282;22197;-78
2023/04/01 03:25:30;;;;;;;2.60;0.90;;;;;;;;;;110077;1282;22157;-78
2023/04/01 03:27:59;;;;;;;4.40;0.90;;;;;;;;;;109974;1267;22211;-78
2023/04/01 03:37:39;;;;;;;3.20;1.00;;;;;;;;;;110020;1278;22158;-78
2023/04/01 03:40:07;;;;;;;4.30;1.00;;;;;;;;;;108242;1262;2390145;-78
2023/04/01 03:42:35;;;;;;;2.70;0.90;;;;;;;;;;110026;1283;22252;-79
2023/04/01 03:45:15;;;;;;;;;;;;;;;;;;;;;
2023/04/01 03:47:45;;;;;;;3.70;1.00;;;;;;;;;;110009;1283;22143;-79
2023/04/01 03:50:11;;;;;;;6.70;1.10;;;;;;;;;;110028;1259;22146;-79
2023/04/01 03:52:42;;;;;;;5.00;1.00;;;;;;;;;;110019;1282;22878;-79
2023/04/01 03:55:10;;;;;;;7.10;1.50;;;;;;;;;;110031;1282;22324;-79
2023/04/01 03:57:38;;;;;;;5.10;1.20;;;;;;;;;;110051;1282;22149;-80
2023/04/01 04:00:11;;;;;;;6.60;1.40;;;;;;;;;;109972;1259;22223;-80
2023/04/01 04:02:46;;;;;;;7.60;1.70;;;;;;;;;;110032;1278;22520;-80
2023/04/01 04:05:14;;;;;;;6.40;1.30;;;;;;;;;;110054;1282;22140;-80
2023/04/01 04:07:41;;;;;;;7.20;1.70;;;;;;;;;;110006;1278;22159;-80
2023/04/01 04:10:17;;;;;;;6.30;1.70;;;;;;;;;;110269;1251;22138;-80
2023/04/01 04:12:44;;;;;;;6.90;1.50;;;;;;;;;;110522;1275;22083;-80
2023/04/01 04:15:11;;;;;;;7.50;2.00;;;;;;;;;;110436;1275;22816;-80
2023/04/01 04:17:43;;;;;;;7.60;1.40;;;;;;;;;;110466;1275;21997;-80
2023/04/01 04:20:10;;;;;;;8.10;1.90;;;;;;;;;;110448;1275;22450;-80
2023/04/01 04:22:37;;;;;;;7.10;1.40;;;;;;;;;;110519;1253;22798;-80
2023/04/01 04:25:07;;;;;;;7.00;1.70;;;;;;;;;;110528;1274;22811;-80
2023/04/01 04:27:38;;;;;;;5.30;1.30;;;;;;;;;;110625;1273;22958;-80
2023/04/01 04:30:17;;;;;;;5.70;1.40;;;;;;;;;;110581;1273;22081;-81
2023/04/01 04:32:45;;;;;;;6.40;1.40;;;;;;;;;;110386;1257;22809;-80
2023/04/01 04:35:12;;;;;;;5.30;1.80;;;;;;;;;;110315;1275;22094;-80
2023/04/01 04:37:40;;;;;;;6.50;2.40;;;;;;;;;;110501;1274;22580;-79
2023/04/01 04:40:08;;;;;;;7.50;3.60;;;;;;;;;;110615;1274;22196;-80
2023/04/01 04:42:35;;;;;;;8.80;3.60;;;;;;;;;;110798;1256;22686;-79
2023/04/01 04:45:09;;;;;;;6.50;2.50;;;;;;;;;;110492;1273;22768;-80
2023/04/01 04:47:37;;;;;;;5.40;2.00;;;;;;;;;;110622;1273;22392;-80
2023/04/01 04:50:05;;;;;;;7.50;3.30;;;;;;;;;;110565;1273;22119;-80
2023/04/01 04:52:32;;;;;;;5.00;1.40;;;;;;;;;;110464;1257;22133;-80
2023/04/01 04:55:00;;;;;;;5.50;1.70;;;;;;;;;;110511;1274;22092;-80
2023/04/01 04:57:27;;;;;;;6.40;1.70;;;;;;;;;;110517;1274;22122;-80
2023/04/01 04:59:56;;;;;;;5.20;1.60;;;;;;;;;;110536;1274;22134;-79
2023/04/01 05:02:38;;;;;;;6.70;2.70;;;;;;;;;;110656;1253;21985;-80
2023/04/01 05:05:06;;;;;;;8.60;2.50;;;;;;;;;;110568;1273;22099;-80
2023/04/01 05:07:35;;;;;;;7.40;2.10;;;;;;;;;;110570;1273;22484;-80
2023/04/01 05:10:03;;;;;;;6.30;1.70;;;;;;;;;;110723;1273;22989;-80
2023/04/01 05:12:32;;;;;;;9.20;1.80;;;;;;;;;;110598;1260;22181;-80
2023/04/01 05:15:01;;;;;;;7.10;1.70;;;;;;;;;;110350;1272;22287;-83
2023/04/01 05:17:29;;;;;;;7.00;1.70;;;;;;;;;;110597;1275;22124;-80
2023/04/01 05:19:57;;;;;;;9.30;3.20;;;;;;;;;;110605;1275;22287;-81
2023/04/01 05:22:27;;;;;;;10.30;4.00;;;;;;;;;;110597;1255;22826;-80
2023/04/01 05:24:57;;;;;;;8.10;3.20;;;;;;;;;;110640;1274;22140;-80
2023/04/01 05:27:27;;;;;;;9.00;3.30;;;;;;;;;;110638;1274;22409;-80
2023/04/01 05:30:00;;;;;;;8.70;2.50;;;;;;;;;;110436;1273;22240;-79
2023/04/01 05:32:42;;;;;;;5.80;1.50;;;;;;;;;;110487;1260;22987;-80
2023/04/01 05:35:12;;;;;;;4.50;1.60;;;;;;;;;;110628;1275;22089;-80
2023/04/01 05:37:41;;;;;;;5.30;1.20;;;;;;;;;;110514;1275;22093;-80
2023/04/01 05:40:11;;;;;;;6.10;1.90;;;;;;;;;;110492;1275;22107;-80
2023/04/01 05:42:41;;;;;;;5.90;1.50;;;;;;;;;;110673;1254;22103;-80
2023/04/01 05:45:10;;;;;;;7.70;2.30;;;;;;;;;;110515;1274;23043;-80
2023/04/01 05:47:57;;;;;;;6.80;1.60;;;;;;;;;;110670;1274;22087;-82
2023/04/01 05:50:25;;;;;;;5.50;1.10;;;;;;;;;;110680;1274;23230;-80
2023/04/01 05:52:54;;;;;;;5.40;1.40;;;;;;;;;;110654;1257;22106;-78
2023/04/01 05:55:24;;;;;;;6.60;1.90;;;;;;;;;;110509;1275;22090;-79
2023/04/01 05:57:56;;;;;;;5.50;1.50;;;;;;;;;;110538;1275;21980;-80
2023/04/01 06:00:25;;;;;;;8.00;2.00;;;;;;;;;;110455;1275;22097;-80
2023/04/01 06:02:59;;;;;;;7.30;1.80;;;;;;;;;;110450;1257;22089;-79
2023/04/01 06:05:48;;;;;;;5.40;1.30;;;;;;;;;;110687;1274;22078;-80
2023/04/01 06:08:19;;;;;;;6.40;1.40;;;;;;;;;;110507;1274;22097;-81
2023/04/01 06:11:27;;;;;;;5.20;1.70;;;;;;;;;;110661;1274;22100;-78
2023/04/01 06:14:05;;;;;;;5.70;1.30;;;;;;;;;;110867;1257;22124;-79
2023/04/01 06:16:45;;;;;;;7.60;1.40;;;;;;;;;;110482;1275;22018;-79
2023/04/01 06:19:29;;;;;;;3.10;0.60;;;;;;;;;;110514;1275;22111;-80
2023/04/01 06:29:59;;;;;;;5.60;0.80;;;;;;;;;;104141;1292;545466;-82
2023/04/01 06:32:20;;;;;;;5.20;0.80;;;;;;;;;;106277;1285;25543;-84
2023/04/01 06:35:19;;;;;;;4.20;0.70;;;;;;;;;;106234;1285;24529;-79
2023/04/01 06:37:50;;;;;;;3.90;0.70;;;;;;;;;;106288;1285;23747;-81
2023/04/01 06:40:49;;;;;;;;;;;;;;;;;;;;;
2023/04/01 06:43:49;;;;;;;4.10;0.70;;;;;;;;;;102718;1285;5079496;-82
2023/04/01 06:46:59;;;;;;;3.20;0.90;;;;;;;;;;106433;1279;23909;-85
2023/04/01 06:50:18;;;;;;;;;;;;;;;;;;;;;
2023/04/01 06:53:25;;;;;;;4.90;0.90;;;;;;;;;;106613;1283;22634;-80
2023/04/01 06:56:18;;;;;;;6.50;1.00;;;;;;;;;;106850;1281;25231;-80
2023/04/01 07:00:04;;;;;;;3.90;0.90;;;;;;;;;;106539;1266;22543;-80
2023/04/01 07:03:12;;;;;;;8.90;1.30;;;;;;;;;;107362;1273;22519;-87
2023/04/01 07:06:15;;;;;;;6.70;0.90;;;;;;;;;;106635;1281;26494;-85
2023/04/01 07:09:24;;;;;;;6.20;0.80;;;;;;;;;;106769;1264;22621;-86
2023/04/01 07:13:10;;;;;;;;;;;;;;;;;;;;;
2023/04/01 07:16:20;;;;;;;4.60;1.00;;;;;;;;;;106192;1281;22542;-79
2023/04/01 07:18:56;;;;;;;3.30;0.80;;;;;;;;;;106263;1271;22797;-80
2023/04/01 07:21:27;;;;;;;5.80;0.90;;;;;;;;;;106269;1284;24388;-79
2023/04/01 07:24:17;;;;;;;5.00;0.80;;;;;;;;;;106215;1284;22552;-80
2023/04/01 07:27:13;;;;;;;6.90;1.20;;;;;;;;;;106133;1285;23877;-79
2023/04/01 07:30:10;;;;;;;4.00;0.80;;;;;;;;;;106348;1286;22593;-80
2023/04/01 07:33:11;;;;;;;;;;;;;;;;;;;;;
2023/04/01 07:36:17;;;;;;;6.10;0.70;;;;;;;;;;106262;1288;24360;-80
2023/04/01 07:38:53;;;;;;;5.50;1.00;;;;;;;;;;105896;1289;21922;-84
2023/04/01 07:41:59;;;;;;;4.20;1.00;;;;;;;;;;106187;1287;24421;-82
2023/04/01 07:45:06;;;;;;;5.20;1.10;;;;;;;;;;106250;1281;25450;-82
2023/04/01 07:47:51;;;;;;;4.40;0.90;;;;;;;;;;106169;1281;22566;-82
2023/04/01 07:50:53;;;;;;;;;;;;;;;;;;;;;
2023/04/01 07:53:51;;;;;;;6.40;0.70;;;;;;;;;;106670;1273;24191;-82
2023/04/01 07:56:53;;;;;;;5.60;1.00;;;;;;;;;;106538;1279;25255;-83
2023/04/01 07:59:54;;;;;;;4.40;0.80;;;;;;;;;;106759;1277;22495;-80
2023/04/01 08:03:05;;;;;;;4.80;1.00;;;;;;;;;;106822;1263;25245;-80
2023/04/01 08:06:07;;;;;;;4.90;0.80;;;;;;;;;;106742;1278;25513;-85
2023/04/01 08:09:33;;;;;;;5.90;1.40;;;;;;;;;;106823;1278;22497;-80
2023/04/01 08:13:18;;;;;;;4.10;1.00;;;;;;;;;;106963;1270;23789;-80
2023/04/01 08:17:07;;;;;;;;;;;;;;;;;;;;;
2023/04/01 08:19:58;;;;;;;3.10;1.00;;;;;;;;;;107331;1268;24342;-78
2023/04/01 08:22:55;;;;;;;6.70;0.80;;;;;;;;;;107224;1256;25331;-83
2023/04/01 08:26:36;;;;;;;4.20;0.70;;;;;;;;;;107237;1272;24240;-81
2023/04/01 08:29:43;;;;;;;3.20;1.00;;;;;;;;;;107227;1273;25291;-83
2023/04/01 08:32:28;;;;;;;;;;;;;;;;;;;;;
2023/04/01 08:35:34;;;;;;;3.90;1.00;;;;;;;;;;106827;1272;23190;-81
2023/04/01 08:38:14;;;;;;;5.30;0.90;;;;;;;;;;106665;1273;23684;-79
2023/04/01 08:41:39;;;;;;;;;;;;;;;;;;;;;
2023/04/01 08:45:00;;;;;;;2.90;0.60;;;;;;;;;;106594;1271;22703;-81
2023/04/01 08:47:41;;;;;;;3.20;0.60;;;;;;;;;;106953;1274;25326;-78
2023/04/01 08:50:32;;;;;;;;;;;;;;;;;;;;;
2023/04/01 08:53:52;;;;;;;5.00;0.70;;;;;;;;;;106602;1267;22524;-82
2023/04/01 08:56:51;;;;;;;3.90;0.80;;;;;;;;;;106894;1273;23973;-82
2023/04/01 09:00:14;;;;;;;4.00;0.90;;;;;;;;;;106840;1276;22568;-78
2023/04/01 09:03:24;;;;;;;3.00;0.40;;;;;;;;;;106869;1281;23871;-80
2023/04/01 09:06:23;;;;;;;5.20;1.10;;;;;;;;;;106712;1279;22533;-81
2023/04/01 09:09:02;;;;;;;4.60;1.00;;;;;;;;;;107145;1270;25388;-79
2023/04/01 09:12:22;;;;;;;3.20;0.80;;;;;;;;;;107398;1275;25295;-80
2023/04/01 09:14:58;;;;;;;4.20;1.00;;;;;;;;;;107481;1253;25216;-78
2023/04/01 09:17:42;;;;;;;4.40;1.10;;;;;;;;;;107376;1267;25327;-81
2023/04/01 09:20:30;;;;;;;4.00;0.80;;;;;;;;;;107185;1272;22513;-79
2023/04/01 09:23:21;;;;;;;5.20;0.90;;;;;;;;;;107262;1272;24265;-78
2023/04/01 09:26:14;;;;;;;5.30;1.10;;;;;;;;;;107299;1264;25328;-78
2023/04/01 09:29:00;;;;;;;4.60;0.90;;;;;;;;;;107219;1273;25471;-81
2023/04/01 09:31:59;;;;;;;6.40;0.90;;;;;;;;;;107226;1273;24388;-77
2023/04/01 09:40:17;;;;;;;2.80;0.70;;;;;;;;;;104008;1311;544850;-83
2023/04/01 09:42:49;;;;;;;6.60;1.20;;;;;;;;;;106496;1285;25348;-77
2023/04/01 09:46:00;;;;;;;;;;;;;;;;;;;;;
2023/04/01 09:48:47;;;;;;;5.90;0.90;;;;;;;;;;106435;1285;24206;-77
2023/04/01 09:51:26;;;;;;;5.60;1.20;;;;;;;;;;106120;1270;25297;-78
2023/04/01 09:53:56;;;;;;;5.90;1.00;;;;;;;;;;104328;1284;2601015;-85
2023/04/01 09:56:54;;;;;;;4.60;1.00;;;;;;;;;;106530;1272;22521;-79
2023/04/01 10:00:04;;;;;;;4.80;1.30;;;;;;;;;;106500;1263;24225;-86
2023/04/01 10:02:46;;;;;;;4.30;1.00;;;;;;;;;;107452;1264;24166;-79
2023/04/01 10:05:35;;;;;;;4.20;0.80;;;;;;;;;;107124;1271;22772;-78
2023/04/01 10:08:42;;;;;;;6.80;1.20;;;;;;;;;;107012;1272;25337;-77
2023/04/01 10:11:28;;;;;;;6.20;1.20;;;;;;;;;;106907;1257;22524;-81
2023/04/01 10:14:21;;;;;;;7.10;1.50;;;;;;;;;;107053;1273;26182;-79
2023/04/01 10:17:11;;;;;;;4.90;1.20;;;;;;;;;;103981;1292;545186;-79
2023/04/01 10:19:56;;;;;;;4.20;1.00;;;;;;;;;;106094;1287;25425;-80
2023/04/01 10:22:32;;;;;;;5.70;1.10;;;;;;;;;;105907;1288;25419;-84
2023/04/01 10:25:29;;;;;;;6.80;2.70;;;;;;;;;;106125;1285;24204;-80
2023/04/01 10:28:14;;;;;;;8.70;1.00;;;;;;;;;;106046;1288;23925;-84
2023/04/01 10:31:24;;;;;;;4.70;1.40;;;;;;;;;;104357;1285;2696904;-80
2023/04/01 10:34:06;;;;;;;6.70;3.00;;;;;;;;;;106243;1285;25376;-79
2023/04/01 10:36:40;;;;;;;6.60;1.10;;;;;;;;;;106189;1270;22540;-81
2023/04/01 10:39:13;;;;;;;12.80;4.50;;;;;;;;;;106078;1286;24276;-80
2023/04/01 10:41:51;;;;;;;5.00;1.60;;;;;;;;;;106121;1267;22545;-84
2023/04/01 10:44:51;;;;;;;6.80;1.80;;;;;;;;;;106239;1280;22643;-81
2023/04/01 10:47:50;;;;;;;5.10;1.10;;;;;;;;;;106009;1269;22538;-80
2023/04/01 10:50:39;;;;;;;8.50;2.20;;;;;;;;;;106237;1283;22540;-77
2023/04/01 10:53:22;;;;;;;14.60;4.00;;;;;;;;;;106211;1285;23893;-76
2023/04/01 10:56:22;;;;;;;16.00;5.40;;;;;;;;;;106106;1279;23884;-79
2023/04/01 10:59:28;;;;;;;73.90;29.60;;;;;;;;;;106272;1267;25278;-80
2023/04/01 11:02:45;;;;;;;4.50;1.30;;;;;;;;;;106247;1280;23953;-81
2023/04/01 11:05:58;;;;;;;6.10;1.60;;;;;;;;;;106160;1282;22527;-80
2023/04/01 11:08:35;;;;;;;11.90;4.40;;;;;;;;;;106351;1267;24258;-80
2023/04/01 11:11:40;;;;;;;10.20;3.80;;;;;;;;;;106368;1283;25398;-80
2023/04/01 11:14:29;;;;;;;4.60;1.40;;;;;;;;;;105897;1291;25367;-81
2023/04/01 11:17:22;;;;;;;6.80;1.40;;;;;;;;;;106421;1282;25287;-81
2023/04/01 11:19:51;;;;;;;6.40;1.50;;;;;;;;;;106319;1277;25484;-80
2023/04/01 11:22:26;;;;;;;3.80;1.10;;;;;;;;;;106199;1279;22594;-79
2023/04/01 11:25:14;;;;;;;3.80;1.10;;;;;;;;;;106142;1285;25484;-83
2023/04/01 11:27:53;;;;;;;7.30;1.70;;;;;;;;;;106333;1285;25415;-79
2023/04/01 11:30:23;;;;;;;5.50;1.40;;;;;;;;;;106010;1270;24273;-80
2023/04/01 11:33:12;;;;;;;6.00;1.60;;;;;;;;;;106129;1285;25280;-81
2023/04/01 11:36:00;;;;;;;5.60;1.60;;;;;;;;;;106333;1285;22605;-77
2023/04/01 11:38:51;;;;;;;4.20;1.20;;;;;;;;;;106400;1264;25271;-82
2023/04/01 11:41:36;;;;;;;4.40;0.90;;;;;;;;;;106466;1276;21712;-85
2023/04/01 11:44:24;;;;;;;4.90;1.00;;;;;;;;;;106460;1284;22530;-83
2023/04/01 11:47:18;;;;;;;4.70;1.00;;;;;;;;;;106410;1284;25363;-79
2023/04/01 11:50:00;;;;;;;5.80;1.20;;;;;;;;;;106473;1276;26495;-83
2023/04/01 11:52:41;;;;;;;4.20;1.20;;;;;;;;;;106722;1279;25322;-83
2023/04/01 11:55:11;;;;;;;4.30;0.90;;;;;;;;;;106483;1279;22540;-81
2023/04/01 11:57:50;;;;;;;7.70;2.20;;;;;;;;;;106806;1279;24190;-81
2023/04/01 12:00:31;;;;;;;9.90;2.80;;;;;;;;;;106666;1273;23458;-80
2023/04/01 12:03:16;;;;;;;10.40;3.20;;;;;;;;;;106793;1279;22943;-79
2023/04/01 12:05:48;;;;;;;5.60;1.40;;;;;;;;;;106842;1279;22536;-86
2023/04/01 12:08:33;;;;;;;9.00;2.40;;;;;;;;;;106650;1279;22480;-83
2023/04/01 12:11:04;;;;;;;7.40;2.30;;;;;;;;;;106812;1261;22534;-79
2023/04/01 12:13:31;;;;;;;5.30;1.10;;;;;;;;;;106801;1279;22530;-83
2023/04/01 12:16:06;;;;;;;5.60;1.30;;;;;;;;;;106950;1279;24210;-82
2023/04/01 12:18:46;;;;;;;4.30;1.10;;;;;;;;;;106804;1279;25344;-83
2023/04/01 12:21:22;;;;;;;7.70;2.10;;;;;;;;;;106890;1269;22727;-81
2023/04/01 12:23:57;;;;;;;10.20;3.70;;;;;;;;;;106927;1279;22538;-82
2023/04/01 12:26:23;;;;;;;7.90;1.90;;;;;;;;;;106795;1279;25256;-84
2023/04/01 12:29:09;;;;;;;5.60;1.50;;;;;;;;;;106841;1276;22526;-82
2023/04/01 12:31:51;;;;;;;5.40;1.60;;;;;;;;;;106768;1272;25322;-85
2023/04/01 12:34:38;;;;;;;5.30;1.60;;;;;;;;;;106686;1272;25322;-81
2023/04/01 12:37:25;;;;;;;7.50;2.40;;;;;;;;;;106969;1274;24459;-82
2023/04/01 12:39:58;;;;;;;4.00;1.00;;;;;;;;;;106769;1257;26449;-78
2023/04/01 12:42:55;;;;;;;3.70;0.90;;;;;;;;;;106770;1273;25469;-84
2023/04/01 12:45:30;;;;;;;3.70;0.70;;;;;;;;;;106469;1284;22537;-82
2023/04/01 12:48:15;;;;;;;5.10;1.20;;;;;;;;;;106425;1284;25593;-82
2023/04/01 12:51:04;;;;;;;5.50;1.40;;;;;;;;;;106574;1266;22769;-79
2023/04/01 12:53:45;;;;;;;4.30;1.10;;;;;;;;;;106549;1276;24202;-80
2023/04/01 12:56:31;;;;;;;8.30;2.00;;;;;;;;;;106488;1280;22535;-80
2023/04/01 12:59:11;;;;;;;5.50;1.30;;;;;;;;;;106519;1277;22523;-79
2023/04/01 13:01:52;;;;;;;6.50;1.20;;;;;;;;;;106454;1265;22777;-83
2023/04/01 13:04:47;;;;;;;4.10;0.90;;;;;;;;;;106420;1277;22655;-81
2023/04/01 13:07:43;;;;;;;4.40;1.00;;;;;;;;;;106521;1276;22631;-79
2023/04/01 13:10:29;;;;;;;4.00;0.80;;;;;;;;;;106186;1284;23170;-80
2023/04/01 13:13:04;;;;;;;3.10;0.80;;;;;;;;;;106631;1265;22578;-81
2023/04/01 13:15:52;;;;;;;4.10;0.70;;;;;;;;;;106589;1282;22534;-80
2023/04/01 13:18:19;;;;;;;3.60;0.80;;;;;;;;;;106589;1281;22523;-79
2023/04/01 13:20:52;;;;;;;2.90;0.70;;;;;;;;;;106605;1277;23260;-79
2023/04/01 13:23:36;;;;;;;4.30;1.00;;;;;;;;;;106884;1275;22523;-80
2023/04/01 13:26:06;;;;;;;5.90;1.50;;;;;;;;;;106989;1272;22639;-82
2023/04/01 13:29:00;;;;;;;7.70;2.50;;;;;;;;;;106571;1273;24282;-81
2023/04/01 13:31:50;;;;;;;7.30;1.80;;;;;;;;;;106992;1267;23505;-80
2023/04/01 13:34:47;;;;;;;5.50;1.60;;;;;;;;;;107086;1271;23797;-81
2023/04/01 13:37:15;;;;;;;3.60;1.20;;;;;;;;;;107065;1272;24256;-79
2023/04/01 13:40:15;;;;;;;11.30;3.50;;;;;;;;;;106765;1279;22523;-84
2023/04/01 13:43:04;;;;;;;17.70;5.70;;;;;;;;;;107139;1258;24330;-80
2023/04/01 13:45:57;;;;;;;16.80;5.80;;;;;;;;;;106882;1275;25322;-83
2023/04/01 13:48:48;;;;;;;14.10;5.10;;;;;;;;;;106782;1279;24248;-84
2023/04/01 13:51:24;;;;;;;11.00;3.70;;;;;;;;;;106809;1279;24346;-83
2023/04/01 13:54:10;;;;;;;8.90;2.90;;;;;;;;;;107062;1260;24191;-84
2023/04/01 13:56:58;;;;;;;7.00;2.50;;;;;;;;;;106880;1279;22482;-83
2023/04/01 13:59:43;;;;;;;7.00;1.80;;;;;;;;;;106829;1279;22643;-83
2023/04/01 14:02:29;;;;;;;5.50;1.40;;;;;;;;;;106947;1258;24238;-79
2023/04/01 14:05:10;;;;;;;3.60;1.00;;;;;;;;;;106859;1279;25471;-84
2023/04/01 14:08:00;;;;;;;5.20;0.90;;;;;;;;;;106810;1279;22518;-81
2023/04/01 14:10:48;;;;;;;3.40;0.90;;;;;;;;;;106786;1279;22527;-80
2023/04/01 14:13:47;;;;;;;2.70;0.80;;;;;;;;;;106904;1259;25310;-82
2023/04/01 14:16:30;;;;;;;6.20;1.30;;;;;;;;;;106953;1279;24890;-80
2023/04/01 14:19:15;;;;;;;5.40;1.60;;;;;;;;;;106898;1279;24337;-90
2023/04/01 14:22:12;;;;;;;8.20;3.50;;;;;;;;;;106904;1279;22527;-84
2023/04/01 14:25:10;;;;;;;5.80;1.60;;;;;;;;;;106817;1279;25233;-81
2023/04/01 14:27:40;;;;;;;5.80;1.20;;;;;;;;;;106756;1279;22538;-79
2023/04/01 14:30:36;;;;;;;7.30;2.10;;;;;;;;;;106782;1267;22774;-85
2023/04/01 14:33:24;;;;;;;7.80;1.70;;;;;;;;;;106720;1258;22523;-81
2023/04/01 14:35:52;;;;;;;7.40;1.70;;;;;;;;;;106905;1279;22633;-80
2023/04/01 14:39:23;;;;;;;16.90;5.20;;;;;;;;;;106707;1279;23252;-80
2023/04/01 14:41:44;;;;;;;46.80;17.70;;;;;;;;;;106767;1279;22530;-86
2023/04/01 14:44:59;;;;;;;21.20;6.60;;;;;;;;;;106813;1267;23905;-82
2023/04/01 14:47:55;;;;;;;103.90;31.60;;;;;;;;;;106885;1279;22790;-84
2023/04/01 14:50:26;;;;;;;16.40;6.00;;;;;;;;;;106422;1284;22552;-81
2023/04/01 14:53:11;;;;;;;9.70;3.10;;;;;;;;;;106466;1284;25198;-80
2023/04/01 14:55:41;;;;;;;15.90;8.20;;;;;;;;;;106519;1266;25463;-82
2023/04/01 14:58:12;;;;;;;18.60;9.00;;;;;;;;;;106437;1284;22762;-84
2023/04/01 15:00:58;;;;;;;26.20;10.70;;;;;;;;;;106424;1284;22545;-81
2023/04/01 15:03:25;;;;;;;11.00;3.80;;;;;;;;;;106619;1284;25334;-79
2023/04/01 15:05:56;;;;;;;9.50;2.90;;;;;;;;;;106563;1282;24339;-83
2023/04/01 15:08:32;;;;;;;9.30;4.00;;;;;;;;;;106440;1284;22579;-83
2023/04/01 15:11:28;;;;;;;;;;;;;;;;;;;;;
2023/04/01 15:13:58;;;;;;;27.60;16.70;;;;;;;;;;106539;1261;25240;-85
2023/04/01 15:16:35;;;;;;;21.30;15.10;;;;;;;;;;106539;1277;22995;-82
2023/04/01 15:19:20;;;;;;;26.30;17.90;;;;;;;;;;106471;1284;23152;-80
2023/04/01 15:21:53;;;;;;;29.30;16.40;;;;;;;;;;106567;1276;24203;-82
2023/04/01 15:24:24;;;;;;;9.30;3.70;;;;;;;;;;106535;1267;25288;-82
2023/04/01 15:27:02;;;;;;;11.70;4.80;;;;;;;;;;106580;1280;22640;-82
2023/04/01 15:29:32;;;;;;;8.30;3.60;;;;;;;;;;106789;1280;22540;-82
2023/04/01 15:32:02;;;;;;;8.40;3.80;;;;;;;;;;106775;1280;22530;-86
2023/04/01 15:34:37;;;;;;;78.00;31.10;;;;;;;;;;106836;1264;22543;-82
2023/04/01 15:37:19;;;;;;;15.40;6.20;;;;;;;;;;106964;1279;22563;-84
2023/04/01 15:40:06;;;;;;;9.20;3.50;;;;;;;;;;106899;1279;24267;-87
2023/04/01 15:42:44;;;;;;;41.50;19.60;;;;;;;;;;106886;1279;22530;-84
2023/04/01 15:45:15;;;;;;;855.80;493.40;;;;;;;;;;106762;1260;24273;-81
2023/04/01 15:48:03;;;;;;;355.60;173.60;;;;;;;;;;106711;1279;22532;-81
2023/04/01 15:50:31;;;;;;;209.40;104.60;;;;;;;;;;106882;1279;25351;-81
2023/04/01 15:53:10;;;;;;;38.10;21.90;;;;;;;;;;106606;1279;24397;-80
2023/04/01 15:55:48;;;;;;;61.90;38.20;;;;;;;;;;106678;1276;25313;-81
2023/04/01 15:58:25;;;;;;;59.60;42.20;;;;;;;;;;106713;1279;22539;-83
2023/04/01 16:00:57;;;;;;;26.20;17.50;;;;;;;;;;106813;1279;22667;-86
2023/04/01 16:03:35;;;;;;;40.50;28.10;;;;;;;;;;106786;1280;24323;-85
2023/04/01 16:06:11;;;;;;;49.70;35.50;;;;;;;;;;106836;1263;22523;-81
2023/04/01 16:09:10;;;;;;;55.00;36.40;;;;;;;;;;106898;1279;25389;-82
2023/04/01 16:11:49;;;;;;;31.40;19.70;;;;;;;;;;106789;1279;22472;-85
2023/04/01 16:14:28;;;;;;;50.30;33.10;;;;;;;;;;106890;1279;24266;-85
2023/04/01 16:17:22;;;;;;;21.60;14.00;;;;;;;;;;106700;1263;22580;-81
2023/04/01 16:19:58;;;;;;;27.30;15.80;;;;;;;;;;106841;1279;22543;-86
2023/04/01 16:22:31;;;;;;;32.10;16.30;;;;;;;;;;106833;1279;25246;-85
2023/04/01 16:25:42;;;;;;;24.50;10.80;;;;;;;;;;106949;1279;22556;-81
2023/04/01 16:28:53;;;;;;;182.50;79.90;;;;;;;;;;106469;1266;23146;-86
2023/04/01 16:32:34;;;;;;;;;;;;;;;;;;;;;
2023/04/01 16:35:50;;;;;;;23.40;12.70;;;;;;;;;;106039;1289;22568;-83